North Auburn, Nebraska
Current Conditions -  °F | °C
As of 8:35 PM on Sunday 23 Nov 2014 (Local Time) from KAFK Reporting Station
Clear Clear  
Wind Chill: 33°   Ceiling: Unl
Heat Index: 40°   Visibility: 10mi
Dew Point: 30°   Wind: 13mph
Humidity: 68%   Direction: 330°NNW
Pressure: 29.52"   Gusts: NA
Location:  40.3314°N, 95.8994°W
Report Text: KAFK 240235Z AUTO 33011KT 10SM CLR 05/M01 A2952 RMK AO2 T00461009
Loading
Personal Weather Stations






























Interactive Weather Map New forecast layout! Learn more

10-Day Weather Forecast

Advertisements
Track Severe Weather on mobile